Time;durP1;ratioP1;P1;durP2;ratioP2;P2;SDS_P1;SDS_P2;PMS_P1;PMS_P2;Temp;Humidity;BMP_temperature;BMP_pressure;BME280_temperature;BME280_humidity;BME280_pressure;Samples;Min_cycle;Max_cycle;Signal;HPM_P1;HPM_P2
2022/03/31 00:00:32;;;;;;;15.23;4.88;;;;;;;-0.03;39.49;98434.72;4992682;28;20100;-72
2022/03/31 00:02:59;;;;;;;11.93;4.60;;;;;;;0.11;39.62;98467.50;5011456;28;20399;-71
2022/03/31 00:05:26;;;;;;;11.18;4.75;;;;;;;0.07;39.84;98477.09;5016153;28;20046;-72
2022/03/31 00:07:54;;;;;;;14.95;5.35;;;;;;;0.06;39.89;98472.78;5003282;28;20049;-71
2022/03/31 00:10:23;;;;;;;17.10;5.40;;;;;;;0.02;39.96;98487.75;5010666;28;20085;-73
2022/03/31 00:12:50;;;;;;;14.40;5.97;;;;;;;-0.15;40.57;98487.66;5011286;28;20510;-69
2022/03/31 00:15:17;;;;;;;13.15;5.40;;;;;;;-0.13;40.63;98482.06;5009941;28;20513;-72
2022/03/31 00:17:43;;;;;;;15.83;5.07;;;;;;;-0.16;40.69;98488.72;5001843;28;20401;-72
2022/03/31 00:20:10;;;;;;;16.03;5.80;;;;;;;-0.16;40.42;98486.84;5010765;28;20053;-72
2022/03/31 00:22:36;;;;;;;18.73;5.13;;;;;;;-0.23;41.15;98488.84;5008856;28;20494;-73
2022/03/31 00:25:03;;;;;;;18.17;6.17;;;;;;;-0.31;41.37;98491.91;4980443;28;20129;-71
2022/03/31 00:27:30;;;;;;;19.97;5.77;;;;;;;-0.32;41.35;98485.69;5006937;28;20046;-71
2022/03/31 00:29:56;;;;;;;18.77;6.40;;;;;;;-0.25;41.33;98490.13;5010414;28;20090;-70
2022/03/31 00:32:22;;;;;;;20.27;6.82;;;;;;;-0.32;41.36;98496.44;5011111;28;20069;-72
2022/03/31 00:34:48;;;;;;;19.98;6.25;;;;;;;-0.33;41.45;98499.34;5010411;28;20499;-71
2022/03/31 00:37:14;;;;;;;15.88;6.10;;;;;;;-0.47;41.95;98504.16;5009793;28;20061;-72
2022/03/31 00:39:42;;;;;;;15.17;5.87;;;;;;;-0.54;42.29;98506.16;5010844;28;20061;-71
2022/03/31 00:42:10;;;;;;;20.70;7.35;;;;;;;-0.51;42.28;98505.69;5010839;28;20050;-71
2022/03/31 00:44:37;;;;;;;21.48;7.63;;;;;;;-0.62;42.76;98500.06;5009704;28;20061;-69
2022/03/31 00:47:27;;;;;;;16.63;7.33;;;;;;;-0.49;42.39;98501.69;5007031;28;20034;-71
2022/03/31 00:49:53;;;;;;;17.83;6.93;;;;;;;-0.57;42.81;98507.44;5007545;28;20868;-71
2022/03/31 00:52:19;;;;;;;14.90;6.88;;;;;;;-0.66;43.05;98498.09;5005339;28;20776;-71
2022/03/31 00:54:46;;;;;;;19.80;6.57;;;;;;;-0.77;43.22;98492.50;4995267;28;20054;-71
2022/03/31 00:57:13;;;;;;;20.43;6.10;;;;;;;-0.50;42.67;98513.50;5009313;28;20053;-71
2022/03/31 00:59:40;;;;;;;13.85;6.38;;;;;;;-0.54;42.98;98508.84;5006384;28;20410;-72
2022/03/31 01:02:08;;;;;;;16.15;6.70;;;;;;;-0.68;42.92;98494.81;5004598;28;20077;-71
2022/03/31 01:04:35;;;;;;;25.43;7.23;;;;;;;-0.57;43.14;98516.28;5006252;28;20057;-72
2022/03/31 01:07:02;;;;;;;15.38;7.10;;;;;;;-0.57;43.23;98516.28;4996506;28;20506;-72
2022/03/31 01:09:29;;;;;;;25.00;7.40;;;;;;;-0.52;43.10;98520.16;4995730;28;20047;-73
2022/03/31 01:11:56;;;;;;;17.80;6.57;;;;;;;-0.47;42.90;98514.91;5006484;28;20050;-73
2022/03/31 01:14:22;;;;;;;16.33;7.67;;;;;;;-0.42;43.03;98515.00;5006693;28;20045;-71
2022/03/31 01:16:49;;;;;;;14.00;6.57;;;;;;;-0.43;42.86;98511.53;5007632;28;20510;-72
2022/03/31 01:19:15;;;;;;;11.00;4.82;;;;;;;-0.35;42.79;98509.53;4992144;28;20581;-70
2022/03/31 01:21:46;;;;;;;10.63;4.07;;;;;;;-0.36;43.01;98513.25;5015093;28;20101;-72
2022/03/31 01:24:14;;;;;;;10.53;3.73;;;;;;;-0.36;43.10;98514.09;5011644;28;20058;-72
2022/03/31 01:26:41;;;;;;;15.73;4.07;;;;;;;-0.36;43.12;98515.94;5012061;28;20473;-72
2022/03/31 01:29:08;;;;;;;11.02;3.67;;;;;;;-0.38;43.39;98513.50;5013989;28;20088;-72
2022/03/31 01:31:36;;;;;;;16.77;4.43;;;;;;;-0.38;43.43;98516.19;5012584;28;20403;-72
2022/03/31 01:34:03;;;;;;;11.17;3.77;;;;;;;-0.41;43.64;98513.97;5028219;28;20073;-72
2022/03/31 01:36:29;;;;;;;12.97;4.17;;;;;;;-0.45;43.95;98512.81;4998993;28;20080;-72
2022/03/31 01:38:55;;;;;;;17.73;4.60;;;;;;;-0.45;43.73;98513.63;5013401;28;20164;-72
2022/03/31 01:41:22;;;;;;;20.67;4.73;;;;;;;-0.46;44.01;98524.59;4997249;28;20046;-73
2022/03/31 01:43:48;;;;;;;17.83;5.03;;;;;;;-0.63;44.27;98501.13;4994142;28;20082;-71
2022/03/31 01:46:15;;;;;;;17.13;5.57;;;;;;;-0.61;44.52;98519.72;5011518;28;20215;-73
2022/03/31 01:48:41;;;;;;;28.60;5.53;;;;;;;-0.60;44.65;98526.72;4991861;28;20565;-72
2022/03/31 01:51:07;;;;;;;22.00;6.68;;;;;;;-0.76;45.11;98510.22;5007542;28;20046;-73
2022/03/31 01:53:36;;;;;;;17.45;5.50;;;;;;;-0.79;45.65;98525.97;5013358;28;20496;-72
2022/03/31 01:56:03;;;;;;;27.23;5.70;;;;;;;-0.83;45.67;98532.88;5010858;28;20088;-73
2022/03/31 01:58:30;;;;;;;22.13;6.10;;;;;;;-0.77;45.45;98531.94;5013134;28;20053;-73
2022/03/31 02:00:59;;;;;;;15.35;5.32;;;;;;;-0.74;45.24;98523.41;4986096;28;20062;-72
2022/03/31 02:03:26;;;;;;;13.47;5.10;;;;;;;-0.69;45.41;98539.66;4981068;28;20511;-73
2022/03/31 02:05:53;;;;;;;18.70;5.00;;;;;;;-0.74;45.29;98524.25;4997033;28;20042;-73
2022/03/31 02:08:19;;;;;;;14.60;4.80;;;;;;;-0.73;45.77;98538.47;5005109;28;20128;-73
2022/03/31 02:10:46;;;;;;;11.57;4.70;;;;;;;-0.81;46.12;98553.03;5010974;28;20069;-73
2022/03/31 02:13:13;;;;;;;11.07;4.90;;;;;;;-0.80;45.93;98554.69;5012709;28;20133;-73
2022/03/31 02:15:40;;;;;;;11.85;4.40;;;;;;;-0.83;46.35;98552.47;5008817;28;20437;-73
2022/03/31 02:18:06;;;;;;;12.43;4.70;;;;;;;-0.93;46.49;98550.34;5012902;28;20128;-72
2022/03/31 02:20:33;;;;;;;14.13;4.60;;;;;;;-0.81;46.28;98552.25;4991459;28;20041;-73
2022/03/31 02:23:00;;;;;;;16.10;5.00;;;;;;;-0.84;46.21;98544.66;4994951;28;20100;-73
2022/03/31 02:25:26;;;;;;;13.10;4.47;;;;;;;-0.69;46.05;98545.03;5012688;28;20057;-71
2022/03/31 02:27:54;;;;;;;12.07;4.70;;;;;;;-0.62;45.66;98539.56;5012219;28;20286;-73
2022/03/31 02:30:21;;;;;;;12.90;4.75;;;;;;;-0.63;46.15;98541.41;5011147;28;20077;-72
2022/03/31 02:32:48;;;;;;;13.32;4.90;;;;;;;-0.64;45.90;98544.31;5034325;28;20049;-74
2022/03/31 02:35:15;;;;;;;14.15;4.80;;;;;;;-0.67;46.02;98539.41;4999026;28;20057;-74
2022/03/31 02:37:41;;;;;;;15.00;5.23;;;;;;;-0.68;46.28;98546.66;5008562;28;20053;-75
2022/03/31 02:40:08;;;;;;;16.20;6.15;;;;;;;-0.73;46.33;98530.41;5012979;28;20050;-74
2022/03/31 02:42:35;;;;;;;13.60;5.80;;;;;;;-0.68;46.43;98551.19;5012413;28;20058;-73
2022/03/31 02:45:01;;;;;;;20.98;6.53;;;;;;;-0.71;46.49;98552.47;5028137;28;20042;-74
2022/03/31 02:47:29;;;;;;;13.10;5.65;;;;;;;-0.73;46.78;98551.88;4993764;28;20514;-73
2022/03/31 02:49:56;;;;;;;17.85;6.13;;;;;;;-0.78;46.49;98536.50;4994548;28;20172;-72
2022/03/31 02:52:23;;;;;;;12.55;6.05;;;;;;;-0.69;46.38;98552.25;5006398;28;20054;-73
2022/03/31 02:57:34;;;;;;;19.73;6.63;;;;;;;-0.51;46.16;98559.41;5020463;28;20046;-74
2022/03/31 03:00:01;;;;;;;20.97;5.93;;;;;;;-0.50;46.26;98561.84;4964128;28;20060;-73
2022/03/31 03:02:27;;;;;;;17.73;5.40;;;;;;;-0.49;46.01;98557.28;5001046;28;20046;-74
2022/03/31 03:04:54;;;;;;;15.20;5.88;;;;;;;-0.51;46.25;98554.03;5003887;28;20104;-76
2022/03/31 03:07:21;;;;;;;15.15;5.93;;;;;;;-0.55;46.36;98558.22;5010880;28;20060;-74
2022/03/31 03:09:47;;;;;;;15.23;5.88;;;;;;;-0.50;46.36;98567.22;5005922;28;20070;-74
2022/03/31 03:12:13;;;;;;;15.03;6.50;;;;;;;-0.50;46.53;98564.53;5004404;28;20046;-74
2022/03/31 03:14:40;;;;;;;15.23;6.88;;;;;;;-0.49;46.47;98555.41;4995046;28;20423;-74
2022/03/31 03:17:07;;;;;;;14.43;6.80;;;;;;;-0.50;46.97;98558.34;5004022;28;20141;-75
2022/03/31 03:19:33;;;;;;;16.10;6.87;;;;;;;-0.60;47.07;98565.09;4993876;28;20053;-74
2022/03/31 03:21:59;;;;;;;18.03;9.57;;;;;;;-0.59;47.07;98560.56;5022889;28;20076;-74
2022/03/31 03:24:26;;;;;;;22.87;10.73;;;;;;;-0.66;47.55;98571.41;5013722;28;20042;-74
2022/03/31 03:26:52;;;;;;;17.50;8.73;;;;;;;-0.70;47.63;98567.56;5007932;28;20220;-74
2022/03/31 03:29:18;;;;;;;19.63;8.90;;;;;;;-0.75;47.78;98572.78;5007327;28;20046;-74
2022/03/31 03:31:44;;;;;;;21.63;8.97;;;;;;;-0.94;48.66;98570.19;5003044;28;20046;-74
2022/03/31 03:34:11;;;;;;;16.20;7.93;;;;;;;-0.87;48.36;98575.44;5010767;28;20054;-73
2022/03/31 03:36:37;;;;;;;19.52;8.77;;;;;;;-1.08;49.33;98568.72;5026660;28;20471;-76
2022/03/31 03:39:04;;;;;;;20.67;8.33;;;;;;;-1.01;49.45;98569.47;4993626;28;20152;-75
2022/03/31 03:41:31;;;;;;;23.98;7.28;;;;;;;-1.05;49.33;98554.84;4999178;28;20063;-75
2022/03/31 03:43:57;;;;;;;19.00;7.63;;;;;;;-1.00;49.25;98569.22;4994254;28;20057;-74
2022/03/31 03:46:23;;;;;;;18.97;7.37;;;;;;;-1.02;49.40;98557.91;5008538;28;20046;-73
2022/03/31 03:48:50;;;;;;;21.47;7.90;;;;;;;-1.12;49.42;98563.00;5010775;28;20133;-73
2022/03/31 03:51:16;;;;;;;15.90;7.77;;;;;;;-0.97;49.54;98567.97;5000902;28;20073;-72
2022/03/31 03:53:42;;;;;;;16.63;7.63;;;;;;;-1.03;50.06;98577.75;5010533;28;20100;-74
2022/03/31 03:56:08;;;;;;;17.97;7.80;;;;;;;-1.13;50.12;98564.06;4973564;28;20054;-73
2022/03/31 03:58:35;;;;;;;15.80;7.93;;;;;;;-0.91;49.73;98576.97;5022354;28;20072;-74
2022/03/31 04:01:01;;;;;;;17.07;7.30;;;;;;;-0.92;50.07;98583.38;5008694;28;20140;-74
2022/03/31 04:03:28;;;;;;;15.23;7.00;;;;;;;-1.01;50.38;98570.28;4993031;28;20057;-73
2022/03/31 04:05:55;;;;;;;18.10;7.00;;;;;;;-1.02;50.42;98584.75;5010241;28;20100;-74
2022/03/31 04:08:23;;;;;;;18.20;7.15;;;;;;;-0.92;50.31;98580.69;5010353;28;20134;-74
2022/03/31 04:10:49;;;;;;;16.17;6.30;;;;;;;-0.89;50.40;98582.91;5008517;28;20140;-75
2022/03/31 04:13:16;;;;;;;15.80;6.20;;;;;;;-0.84;50.19;98577.66;4997173;28;20046;-74
2022/03/31 04:15:42;;;;;;;14.03;6.50;;;;;;;-0.78;50.47;98586.66;5019162;28;20046;-73
2022/03/31 04:18:09;;;;;;;13.10;5.85;;;;;;;-1.00;51.43;98588.00;4997377;28;20042;-77
2022/03/31 04:20:36;;;;;;;13.93;6.20;;;;;;;-0.92;51.37;98589.53;5016248;28;20050;-72
2022/03/31 04:23:02;;;;;;;13.10;5.97;;;;;;;-0.88;51.62;98598.78;5010695;28;20042;-73
2022/03/31 04:25:28;;;;;;;12.63;5.53;;;;;;;-0.85;51.66;98605.56;5006762;28;20050;-73
2022/03/31 04:27:55;;;;;;;16.03;6.00;;;;;;;-0.91;51.91;98593.88;5008167;28;20089;-73
2022/03/31 04:30:21;;;;;;;13.10;6.00;;;;;;;-0.89;52.45;98604.38;4996020;28;20061;-73
2022/03/31 04:32:49;;;;;;;13.93;5.37;;;;;;;-0.80;51.76;98588.78;5010348;28;20049;-73
2022/03/31 04:35:16;;;;;;;18.48;5.60;;;;;;;-0.69;52.07;98596.03;5010302;28;20590;-72
2022/03/31 04:37:42;;;;;;;13.87;5.80;;;;;;;-0.45;51.02;98596.91;5025952;28;20050;-73
2022/03/31 04:40:09;;;;;;;14.83;6.50;;;;;;;-0.25;50.56;98601.09;4991690;28;20148;-74
2022/03/31 04:42:37;;;;;;;13.03;5.80;;;;;;;-0.31;50.13;98594.00;5011749;28;20100;-76
2022/03/31 04:45:04;;;;;;;18.37;6.60;;;;;;;-0.19;50.47;98605.53;4980388;28;20038;-78
2022/03/31 04:47:31;;;;;;;13.98;5.95;;;;;;;-0.13;50.33;98600.28;5025932;28;20052;-76
2022/03/31 04:49:58;;;;;;;14.63;6.60;;;;;;;-0.05;50.44;98598.06;4986761;28;20064;-74
2022/03/31 04:52:24;;;;;;;16.88;6.93;;;;;;;0.07;50.22;98605.28;4998568;28;20096;-73
2022/03/31 04:54:51;;;;;;;15.65;7.32;;;;;;;0.15;50.18;98604.94;5001550;28;20046;-73
2022/03/31 04:57:20;;;;;;;19.90;7.43;;;;;;;0.26;50.01;98611.34;4998437;28;20082;-72
2022/03/31 04:59:46;;;;;;;14.90;6.90;;;;;;;0.31;50.14;98607.97;4981687;28;20066;-72
2022/03/31 05:02:13;;;;;;;21.55;7.47;;;;;;;0.37;49.99;98602.44;5015587;28;20137;-73
2022/03/31 05:04:39;;;;;;;24.73;7.18;;;;;;;0.44;49.72;98602.31;5010526;28;20054;-74
2022/03/31 05:07:08;;;;;;;13.88;6.05;;;;;;;0.48;49.60;98597.28;5005309;28;20057;-73
2022/03/31 05:09:34;;;;;;;17.33;6.10;;;;;;;0.68;49.52;98602.25;5000543;28;20507;-72
2022/03/31 05:12:00;;;;;;;19.52;6.93;;;;;;;0.81;49.36;98606.53;5002855;28;20407;-75
2022/03/31 05:14:26;;;;;;;15.50;6.47;;;;;;;0.90;49.32;98613.16;4993527;28;20045;-74
2022/03/31 05:16:53;;;;;;;17.80;7.32;;;;;;;0.96;49.04;98606.84;4999382;28;20050;-74
2022/03/31 05:19:19;;;;;;;15.10;6.93;;;;;;;1.03;49.15;98613.94;4999036;28;20050;-74
2022/03/31 05:21:45;;;;;;;18.98;6.43;;;;;;;1.01;49.06;98594.53;5006308;28;20085;-74
2022/03/31 05:24:12;;;;;;;14.27;7.22;;;;;;;1.15;48.73;98605.78;4990922;28;20055;-75
2022/03/31 05:26:38;;;;;;;13.98;6.75;;;;;;;1.29;48.77;98615.19;5006378;28;20073;-73
2022/03/31 05:29:05;;;;;;;23.65;7.20;;;;;;;1.24;48.97;98607.84;5008332;28;20054;-74
2022/03/31 05:31:31;;;;;;;14.35;7.05;;;;;;;1.27;48.96;98615.47;5008755;28;20451;-74
2022/03/31 05:33:57;;;;;;;18.15;7.50;;;;;;;1.31;49.18;98618.47;5008630;28;20046;-74
2022/03/31 05:36:23;;;;;;;23.58;7.68;;;;;;;1.45;48.94;98612.78;4994769;28;20052;-73
2022/03/31 05:38:49;;;;;;;16.42;5.68;;;;;;;1.51;48.83;98614.50;5008221;28;20127;-74
2022/03/31 05:41:16;;;;;;;12.00;4.80;;;;;;;1.62;48.71;98615.50;4991513;28;20625;-74
2022/03/31 05:43:43;;;;;;;12.27;4.88;;;;;;;1.67;48.74;98615.56;4973930;28;20049;-75
2022/03/31 05:46:09;;;;;;;15.32;6.47;;;;;;;1.66;48.95;98619.31;4989297;28;20054;-75
2022/03/31 05:48:37;;;;;;;20.50;7.00;;;;;;;1.76;48.73;98624.03;4995707;28;20056;-75
2022/03/31 05:51:04;;;;;;;19.95;8.48;;;;;;;1.79;48.71;98621.69;5004055;28;20494;-75
2022/03/31 05:53:30;;;;;;;22.83;8.88;;;;;;;1.79;48.44;98610.91;4991672;28;20577;-74
2022/03/31 05:55:57;;;;;;;25.70;9.18;;;;;;;2.00;48.49;98634.66;4994644;28;20056;-75
2022/03/31 05:58:24;;;;;;;25.73;9.82;;;;;;;2.09;48.01;98636.69;5005064;28;20451;-75
2022/03/31 06:00:52;;;;;;;29.83;11.15;;;;;;;2.16;48.02;98638.38;5006578;28;20069;-74
2022/03/31 06:03:21;;;;;;;27.33;10.77;;;;;;;2.24;47.89;98643.38;5002302;28;20395;-74
2022/03/31 06:05:47;;;;;;;27.27;9.88;;;;;;;2.35;47.60;98652.41;5008634;28;20085;-75
2022/03/31 06:08:13;;;;;;;27.63;9.13;;;;;;;2.40;47.46;98645.22;5005507;28;20074;-73
2022/03/31 06:10:39;;;;;;;25.85;8.77;;;;;;;2.53;47.14;98638.63;5000846;28;20046;-76
2022/03/31 06:13:06;;;;;;;17.25;8.48;;;;;;;2.47;47.11;98633.41;5010430;28;20053;-76
2022/03/31 06:15:34;;;;;;;18.40;7.40;;;;;;;2.67;47.00;98652.59;5006327;28;20046;-75
2022/03/31 06:18:01;;;;;;;18.17;6.13;;;;;;;2.73;46.88;98652.63;4972713;28;20121;-76
2022/03/31 06:20:28;;;;;;;17.70;5.32;;;;;;;2.76;46.88;98655.66;4990145;28;20525;-75
2022/03/31 06:22:55;;;;;;;24.92;5.93;;;;;;;2.85;46.95;98658.72;4997944;28;20597;-75
2022/03/31 06:25:21;;;;;;;17.90;5.95;;;;;;;2.83;46.86;98666.28;4999356;28;20058;-76
2022/03/31 06:27:48;;;;;;;22.33;6.20;;;;;;;2.94;46.64;98665.31;4970031;28;20104;-77
2022/03/31 06:30:15;;;;;;;19.30;6.18;;;;;;;3.02;46.67;98671.34;5006303;28;20046;-77
2022/03/31 06:32:42;;;;;;;14.87;4.60;;;;;;;2.97;46.62;98656.72;5009895;28;20144;-76
2022/03/31 06:35:14;;;;;;;22.48;5.68;;;;;;;3.12;46.61;98676.84;4993138;28;20100;-77
2022/03/31 06:37:41;;;;;;;21.48;5.80;;;;;;;3.15;46.40;98670.13;5011917;28;20053;-77
2022/03/31 06:40:10;;;;;;;21.10;5.67;;;;;;;3.27;46.47;98678.91;5011255;28;20501;-76
2022/03/31 06:45:56;;;;;;;16.52;5.22;;;;;;;3.39;46.22;98659.84;5025684;28;20364;-75
2022/03/31 06:52:32;;;;;;;13.18;4.00;;;;;;;3.53;46.76;98661.06;5004892;28;20092;-75
2022/03/31 06:55:17;;;;;;;14.20;3.75;;;;;;;3.49;47.07;98665.34;5008395;28;20064;-75
2022/03/31 06:57:43;;;;;;;11.32;3.60;;;;;;;3.37;46.96;98649.31;5008297;28;20462;-75
2022/03/31 07:00:29;;;;;;;17.67;3.70;;;;;;;3.49;47.27;98668.06;5009933;28;20473;-76
2022/03/31 07:02:59;;;;;;;11.05;3.60;;;;;;;3.49;47.45;98657.25;5001800;28;20053;-73
2022/03/31 07:05:27;;;;;;;15.60;3.78;;;;;;;3.51;47.10;98655.09;4990576;28;20069;-75
2022/03/31 07:07:55;;;;;;;12.65;3.53;;;;;;;3.53;46.90;98642.13;5001110;28;20046;-74
2022/03/31 07:10:22;;;;;;;16.05;4.65;;;;;;;3.64;46.96;98653.84;5008594;28;20097;-74
2022/03/31 07:12:49;;;;;;;19.13;3.58;;;;;;;3.60;47.19;98662.75;5020969;28;20470;-74
2022/03/31 07:15:15;;;;;;;18.73;3.35;;;;;;;3.71;47.10;98659.03;5006818;28;20398;-73
2022/03/31 07:17:42;;;;;;;8.77;3.10;;;;;;;3.78;46.66;98654.25;5014945;28;20465;-75
2022/03/31 07:20:09;;;;;;;17.10;4.03;;;;;;;3.85;46.80;98659.44;4995583;28;20065;-75
2022/03/31 07:22:43;;;;;;;10.10;3.25;;;;;;;3.88;46.68;98658.94;5001930;28;20049;-75
2022/03/31 07:25:10;;;;;;;17.52;4.05;;;;;;;3.85;46.88;98656.75;4998737;28;20046;-76
2022/03/31 07:27:37;;;;;;;13.57;3.10;;;;;;;3.84;46.84;98663.22;5002875;28;20048;-73
2022/03/31 07:30:03;;;;;;;11.55;3.10;;;;;;;3.70;46.94;98638.50;5023522;28;20045;-72
2022/03/31 07:32:30;;;;;;;26.47;3.10;;;;;;;3.86;46.93;98666.47;5022553;28;20473;-72
2022/03/31 07:34:56;;;;;;;10.45;2.85;;;;;;;3.81;46.87;98658.31;5008224;28;20149;-73
2022/03/31 07:37:22;;;;;;;11.77;2.60;;;;;;;3.81;46.82;98663.72;4997015;28;20499;-74
2022/03/31 07:39:52;;;;;;;14.25;3.03;;;;;;;3.85;46.65;98667.56;5001423;28;20133;-76
2022/03/31 07:42:21;;;;;;;10.50;2.50;;;;;;;3.83;46.86;98661.59;4999560;28;20474;-75
2022/03/31 07:44:49;;;;;;;8.45;2.97;;;;;;;3.78;46.98;98673.19;5007147;28;20081;-75
2022/03/31 07:47:15;;;;;;;10.38;2.90;;;;;;;3.68;46.92;98659.56;5006517;28;20054;-74
2022/03/31 07:49:41;;;;;;;9.80;2.95;;;;;;;3.57;46.88;98664.06;5006500;28;20041;-74
2022/03/31 07:52:08;;;;;;;12.65;2.70;;;;;;;3.68;46.80;98673.09;5004912;28;20141;-73
2022/03/31 07:54:43;;;;;;;8.68;2.65;;;;;;;3.67;46.75;98675.00;4997162;28;20058;-73
2022/03/31 07:57:13;;;;;;;7.55;2.78;;;;;;;3.73;46.60;98670.41;5005110;28;20081;-73
2022/03/31 07:59:41;;;;;;;9.18;3.05;;;;;;;3.59;46.87;98656.53;5005572;28;20128;-72
2022/03/31 08:02:42;;;;;;;11.73;3.70;;;;;;;3.60;47.13;98666.25;5003145;28;20060;-73
2022/03/31 08:05:20;;;;;;;11.65;3.70;;;;;;;3.65;47.36;98665.50;4992504;28;20176;-70
2022/03/31 08:07:50;;;;;;;7.70;3.00;;;;;;;3.62;47.30;98672.22;5007076;28;20045;-72
2022/03/31 08:10:29;;;;;;;8.70;3.15;;;;;;;3.60;47.16;98671.66;5006895;28;20077;-72
2022/03/31 08:12:56;;;;;;;9.48;3.13;;;;;;;3.60;47.47;98677.06;5010118;28;20042;-74
2022/03/31 08:15:23;;;;;;;15.10;3.53;;;;;;;3.59;47.29;98672.75;5009917;28;20463;-72
2022/03/31 08:17:50;;;;;;;10.77;3.55;;;;;;;3.46;47.68;98655.06;5010606;28;20388;-72
2022/03/31 08:20:17;;;;;;;11.48;3.85;;;;;;;3.54;47.60;98670.78;5009591;28;20065;-71
2022/03/31 08:22:44;;;;;;;;;;;;;;;3.53;47.72;98674.56;5002957;28;20060;-73
2022/03/31 08:25:17;;;;;;;10.82;3.33;;;;;;;3.39;48.03;98662.53;5005327;28;19968;-71
2022/03/31 08:27:45;;;;;;;7.97;3.15;;;;;;;3.37;47.88;98661.97;5008531;28;20050;-71
2022/03/31 08:30:14;;;;;;;7.68;3.15;;;;;;;3.39;48.06;98665.25;4980808;28;20137;-71
2022/03/31 08:32:43;;;;;;;10.02;3.15;;;;;;;3.37;48.28;98661.97;5001399;28;20048;-73
2022/03/31 08:35:11;;;;;;;9.05;3.08;;;;;;;3.38;48.53;98663.63;5001288;28;20057;-75
2022/03/31 08:37:38;;;;;;;8.95;3.50;;;;;;;3.40;48.29;98656.88;5004577;28;20510;-75
2022/03/31 08:40:12;;;;;;;9.38;3.75;;;;;;;3.30;48.48;98653.28;5006132;28;20054;-74
2022/03/31 08:42:39;;;;;;;9.82;3.90;;;;;;;3.18;48.51;98631.78;5005780;28;20058;-75
2022/03/31 08:45:24;;;;;;;10.18;3.72;;;;;;;3.21;48.47;98639.41;5005301;28;20050;-75
2022/03/31 08:47:53;;;;;;;10.57;3.88;;;;;;;3.36;48.36;98644.97;5001560;28;20116;-73
2022/03/31 08:50:22;;;;;;;9.18;3.75;;;;;;;3.33;48.71;98648.16;5000088;28;20130;-73
2022/03/31 08:52:53;;;;;;;10.63;3.92;;;;;;;3.40;48.45;98651.47;5004459;28;20125;-72
2022/03/31 08:55:21;;;;;;;9.00;3.90;;;;;;;3.46;48.44;98643.41;4970414;28;20053;-72
2022/03/31 08:57:54;;;;;;;13.65;3.72;;;;;;;3.49;48.43;98643.72;5002192;28;20050;-69
2022/03/31 09:00:29;;;;;;;12.93;4.05;;;;;;;3.51;48.42;98638.06;5006453;28;20045;-72
2022/03/31 09:03:02;;;;;;;9.00;3.90;;;;;;;3.51;48.37;98646.16;5000351;28;20057;-72
2022/03/31 09:05:40;;;;;;;13.13;4.30;;;;;;;3.51;48.54;98638.88;4998994;28;20054;-72
2022/03/31 09:08:10;;;;;;;9.88;3.88;;;;;;;3.54;48.61;98635.66;5006013;28;20418;-74
2022/03/31 09:10:48;;;;;;;11.10;4.00;;;;;;;3.60;48.54;98638.44;5005065;28;20053;-72
2022/03/31 09:13:23;;;;;;;12.35;3.67;;;;;;;3.61;48.80;98640.84;4998651;28;20054;-73
2022/03/31 09:15:56;;;;;;;11.43;4.68;;;;;;;3.64;48.54;98636.81;5006011;28;20136;-73
2022/03/31 09:18:24;;;;;;;11.70;3.65;;;;;;;3.69;48.62;98643.09;5004493;28;20057;-73
2022/03/31 09:20:53;;;;;;;11.70;4.10;;;;;;;3.65;48.74;98628.44;4996288;28;20058;-73
2022/03/31 09:23:22;;;;;;;12.18;3.45;;;;;;;3.67;48.87;98636.31;5007929;28;20453;-72
2022/03/31 09:26:00;;;;;;;12.43;3.78;;;;;;;3.68;48.75;98638.75;5009820;28;20108;-73
2022/03/31 09:28:26;;;;;;;;;;;;;;;3.69;48.94;98632.28;4991472;28;20049;-72
2022/03/31 09:30:56;;;;;;;7.70;3.00;;;;;;;3.74;48.85;98627.97;5008969;28;20032;-72
2022/03/31 09:33:32;;;;;;;8.65;3.10;;;;;;;3.78;48.58;98623.69;5003909;28;20127;-73
2022/03/31 09:36:11;;;;;;;16.50;3.45;;;;;;;3.82;48.37;98625.63;5008894;28;20403;-74
2022/03/31 09:38:50;;;;;;;9.50;2.88;;;;;;;3.89;48.20;98624.56;5006375;28;20079;-72
2022/03/31 09:41:21;;;;;;;8.50;3.17;;;;;;;3.86;48.31;98622.38;4996223;28;20046;-74
2022/03/31 09:44:00;;;;;;;9.13;3.08;;;;;;;3.79;48.56;98619.91;4992447;28;20064;-73
2022/03/31 09:46:28;;;;;;;7.70;3.05;;;;;;;3.91;48.05;98617.03;5000576;28;20096;-74
2022/03/31 09:49:00;;;;;;;7.40;3.00;;;;;;;3.98;47.11;98617.59;5007609;28;20052;-73
2022/03/31 09:51:26;;;;;;;8.68;3.03;;;;;;;4.04;46.53;98616.56;5002627;28;20468;-73
2022/03/31 09:53:55;;;;;;;7.10;2.65;;;;;;;3.99;46.39;98613.03;5009768;28;20148;-73
2022/03/31 09:56:25;;;;;;;8.15;2.90;;;;;;;3.98;46.20;98617.59;5007870;28;20058;-74
2022/03/31 09:59:02;;;;;;;5.90;2.92;;;;;;;3.95;45.94;98604.63;5003658;28;20177;-73
2022/03/31 10:01:32;;;;;;;7.63;2.80;;;;;;;3.80;45.99;98603.44;4993851;28;20145;-72
2022/03/31 10:04:07;;;;;;;7.60;2.58;;;;;;;3.64;45.72;98572.75;5002159;28;20053;-73
2022/03/31 10:06:35;;;;;;;9.77;2.92;;;;;;;3.88;45.89;98604.00;5006633;28;20053;-72
2022/03/31 10:09:12;;;;;;;10.88;3.00;;;;;;;3.77;46.00;98593.13;5008962;28;20054;-73
2022/03/31 10:11:40;;;;;;;11.90;2.70;;;;;;;3.86;45.74;98600.75;5003628;28;20066;-72
2022/03/31 10:14:17;;;;;;;9.68;2.92;;;;;;;3.87;45.62;98592.38;5002700;28;20060;-72
2022/03/31 10:16:52;;;;;;;6.88;2.40;;;;;;;3.71;45.51;98575.22;5006921;28;20419;-72
2022/03/31 10:19:35;;;;;;;6.70;2.72;;;;;;;3.88;45.66;98595.91;4999188;28;20050;-71
2022/03/31 10:22:09;;;;;;;6.70;2.60;;;;;;;3.91;45.40;98595.41;5013154;28;20054;-72
2022/03/31 10:24:42;;;;;;;6.55;2.58;;;;;;;3.88;45.30;98590.47;5005621;28;20046;-71
2022/03/31 10:27:09;;;;;;;9.50;3.30;;;;;;;3.90;45.41;98591.03;5006646;28;20283;-71
2022/03/31 10:29:38;;;;;;;7.40;2.70;;;;;;;3.78;45.85;98578.53;5007592;28;20058;-73
2022/03/31 10:32:23;;;;;;;7.47;2.63;;;;;;;3.75;46.61;98591.75;5008639;28;20573;-72
2022/03/31 10:34:55;;;;;;;7.13;2.78;;;;;;;3.66;46.96;98591.41;4986119;28;20065;-72
2022/03/31 10:37:38;;;;;;;7.63;2.65;;;;;;;3.64;47.34;98597.06;4990095;28;20137;-71
2022/03/31 10:40:08;;;;;;;7.35;2.90;;;;;;;3.66;47.50;98599.53;4989337;28;20161;-73
2022/03/31 10:42:35;;;;;;;7.25;2.90;;;;;;;3.63;47.71;98591.94;4986136;28;20054;-71
2022/03/31 10:45:07;;;;;;;9.10;3.10;;;;;;;3.64;47.96;98593.56;4990094;28;20426;-71
2022/03/31 10:47:34;;;;;;;8.52;3.13;;;;;;;3.61;48.47;98591.41;4972818;28;20090;-73
2022/03/31 10:50:03;;;;;;;9.68;3.00;;;;;;;3.57;48.37;98598.38;4988715;28;20097;-71
2022/03/31 10:52:32;;;;;;;7.32;2.83;;;;;;;3.42;48.86;98574.75;4984446;28;20080;-70
2022/03/31 10:55:10;;;;;;;7.75;2.60;;;;;;;3.58;48.71;98592.72;4972789;28;20090;-71
2022/03/31 10:57:42;;;;;;;7.40;3.03;;;;;;;3.58;48.54;98581.91;4987776;28;20058;-72
2022/03/31 11:00:10;;;;;;;7.07;3.10;;;;;;;3.58;48.74;98594.59;4975388;28;20054;-72
2022/03/31 11:02:40;;;;;;;7.78;3.13;;;;;;;3.56;49.01;98589.47;4986942;28;20072;-72
2022/03/31 11:05:08;;;;;;;7.57;2.92;;;;;;;3.63;49.35;98583.84;4993855;28;20518;-73
2022/03/31 11:07:37;;;;;;;8.55;3.13;;;;;;;3.68;49.39;98583.88;4990455;28;20525;-73
2022/03/31 11:10:17;;;;;;;10.32;3.00;;;;;;;3.87;48.89;98581.56;5006908;28;20042;-75
2022/03/31 11:12:44;;;;;;;8.98;3.10;;;;;;;3.99;48.35;98580.56;5007586;28;20510;-73
2022/03/31 11:15:11;;;;;;;8.70;3.10;;;;;;;4.07;48.31;98583.59;5003313;28;20062;-73
2022/03/31 11:17:42;;;;;;;8.18;2.90;;;;;;;4.08;48.17;98578.97;5011628;28;20513;-72
2022/03/31 11:20:20;;;;;;;8.50;2.78;;;;;;;4.04;48.65;98575.97;5005778;28;20144;-73
2022/03/31 11:22:49;;;;;;;8.50;3.30;;;;;;;4.04;48.74;98575.97;5024201;28;20462;-71
2022/03/31 11:25:16;;;;;;;11.23;3.10;;;;;;;4.03;48.88;98571.66;5009773;28;20053;-71
2022/03/31 11:27:52;;;;;;;8.65;2.90;;;;;;;3.99;49.22;98567.03;5041130;28;20054;-71
2022/03/31 11:30:33;;;;;;;8.45;2.83;;;;;;;3.87;49.53;98548.28;4985357;28;20050;-71
2022/03/31 11:33:00;;;;;;;8.60;3.20;;;;;;;3.92;49.42;98564.56;5004266;28;20073;-72
2022/03/31 11:35:29;;;;;;;7.53;2.97;;;;;;;3.82;49.56;98552.59;5007490;28;20065;-74
2022/03/31 11:37:58;;;;;;;7.72;3.10;;;;;;;3.82;50.09;98559.88;5009080;28;20060;-72
2022/03/31 11:40:27;;;;;;;7.97;3.00;;;;;;;3.69;50.02;98544.94;5021990;28;20050;-72
2022/03/31 11:42:56;;;;;;;7.95;3.10;;;;;;;3.77;50.32;98563.41;4996460;28;20111;-73
2022/03/31 11:45:24;;;;;;;10.63;3.50;;;;;;;3.78;50.50;98565.03;5008835;28;20510;-72
2022/03/31 11:48:01;;;;;;;9.73;2.88;;;;;;;3.82;50.75;98559.88;5004957;28;20048;-75